sensor_id;sensor_type;location;lat;lon;timestamp;pressure;altitude;pressure_sealevel;temperature;humidity
74433;BME280;62865;53.146;23.172;2023-05-23T00:02:20;1024.2;;;16;60.7
74433;BME280;62865;53.146;23.172;2023-05-23T00:07:08;1024.2;;;16;60.5
74433;BME280;62865;53.146;23.172;2023-05-23T00:12:18;1024.2;;;15.9;60.5
74433;BME280;62865;53.146;23.172;2023-05-23T00:16:30;1024.2;;;15.7;61.1
74433;BME280;62865;53.146;23.172;2023-05-23T00:22:18;1024.2;;;15.6;61.7
74433;BME280;62865;53.146;23.172;2023-05-23T00:26:48;1024.2;;;15.6;62
74433;BME280;62865;53.146;23.172;2023-05-23T00:31:44;1024.2;;;15.5;62.2
74433;BME280;62865;53.146;23.172;2023-05-23T00:36:44;1024.2;;;15.4;62.5
74433;BME280;62865;53.146;23.172;2023-05-23T00:42:10;1024.2;;;15.2;63.1
74433;BME280;62865;53.146;23.172;2023-05-23T00:47:18;1024.2;;;15.2;63.3
74433;BME280;62865;53.146;23.172;2023-05-23T00:52:18;1024.2;;;15.1;63.5
74433;BME280;62865;53.146;23.172;2023-05-23T00:57:18;1024.2;;;15.1;63.7
74433;BME280;62865;53.146;23.172;2023-05-23T01:01:42;1024.3;;;15;64.6
74433;BME280;62865;53.146;23.172;2023-05-23T01:06:42;1024.3;;;14.9;64.8
74433;BME280;62865;53.146;23.172;2023-05-23T01:11:32;1024.3;;;14.9;64.7
74433;BME280;62865;53.146;23.172;2023-05-23T01:17:06;1024.3;;;14.9;64.9
74433;BME280;62865;53.146;23.172;2023-05-23T01:21:42;1024.4;;;14.9;64.9
74433;BME280;62865;53.146;23.172;2023-05-23T01:27:12;1024.3;;;14.8;64.3
74433;BME280;62865;53.146;23.172;2023-05-23T01:32:00;1024.3;;;14.8;63.8
74433;BME280;62865;53.146;23.172;2023-05-23T01:37:18;1024.3;;;14.8;63.5
74433;BME280;62865;53.146;23.172;2023-05-23T01:41:44;1024.3;;;14.8;62.7
74433;BME280;62865;53.146;23.172;2023-05-23T01:46:40;1024.3;;;14.8;62.7
74433;BME280;62865;53.146;23.172;2023-05-23T01:52:04;1024.2;;;14.8;62.3
74433;BME280;62865;53.146;23.172;2023-05-23T01:56:42;1024.2;;;14.7;62.8
74433;BME280;62865;53.146;23.172;2023-05-23T02:02:06;1024.2;;;14.7;63.3
74433;BME280;62865;53.146;23.172;2023-05-23T02:07:16;1024.2;;;14.6;64.2
74433;BME280;62865;53.146;23.172;2023-05-23T02:11:42;1024.1;;;14.6;64.1
74433;BME280;62865;53.146;23.172;2023-05-23T02:17:18;1024.1;;;14.7;63.9
74433;BME280;62865;53.146;23.172;2023-05-23T02:21:52;1024.1;;;14.5;64.7
74433;BME280;62865;53.146;23.172;2023-05-23T02:26:54;1024.2;;;14.5;64.2
74433;BME280;62865;53.146;23.172;2023-05-23T02:32:18;1024.1;;;14.6;64
74433;BME280;62865;53.146;23.172;2023-05-23T02:36:44;1024.1;;;14.6;64.2
74433;BME280;62865;53.146;23.172;2023-05-23T02:42:18;1024;;;14.5;64.7
74433;BME280;62865;53.146;23.172;2023-05-23T02:46:30;1024;;;14.4;65.3
74433;BME280;62865;53.146;23.172;2023-05-23T02:51:42;1024;;;14.5;65.6
74433;BME280;62865;53.146;23.172;2023-05-23T02:57:06;1024;;;14.5;65.7
74433;BME280;62865;53.146;23.172;2023-05-23T03:01:42;1024;;;14.6;65.8
74433;BME280;62865;53.146;23.172;2023-05-23T03:07:20;1024;;;14.7;65.1
74433;BME280;62865;53.146;23.172;2023-05-23T03:12:10;1024;;;14.9;65.4
74433;BME280;62865;53.146;23.172;2023-05-23T03:16:42;1024;;;15;65
74433;BME280;62865;53.146;23.172;2023-05-23T03:22:04;1024;;;15.2;64.9
74433;BME280;62865;53.146;23.172;2023-05-23T03:26:58;1023.9;;;15.3;64.4
74433;BME280;62865;53.146;23.172;2023-05-23T03:31:36;1023.9;;;15.4;63.8
74433;BME280;62865;53.146;23.172;2023-05-23T03:36:30;1023.9;;;15.5;63.3
74433;BME280;62865;53.146;23.172;2023-05-23T03:42:10;1023.9;;;15.6;62.8
74433;BME280;62865;53.146;23.172;2023-05-23T03:47:02;1023.8;;;15.7;62.4
74433;BME280;62865;53.146;23.172;2023-05-23T03:51:40;1023.8;;;15.8;61.7
74433;BME280;62865;53.146;23.172;2023-05-23T03:57:16;1023.8;;;16;60.5
74433;BME280;62865;53.146;23.172;2023-05-23T04:02:00;1023.8;;;16.1;60.4
74433;BME280;62865;53.146;23.172;2023-05-23T04:06:40;1023.8;;;16.3;60.1
74433;BME280;62865;53.146;23.172;2023-05-23T04:11:54;1023.7;;;16.5;60
74433;BME280;62865;53.146;23.172;2023-05-23T04:17:16;1023.7;;;16.7;59.8
74433;BME280;62865;53.146;23.172;2023-05-23T04:22:16;1023.7;;;16.8;59.4
74433;BME280;62865;53.146;23.172;2023-05-23T04:26:30;1023.6;;;17;58.7
74433;BME280;62865;53.146;23.172;2023-05-23T04:31:58;1023.6;;;17.2;57.8
74433;BME280;62865;53.146;23.172;2023-05-23T04:37:02;1023.6;;;17.4;56.5
74433;BME280;62865;53.146;23.172;2023-05-23T04:41:42;1023.6;;;17.6;56.1
74433;BME280;62865;53.146;23.172;2023-05-23T04:46:56;1023.6;;;17.7;55.6
74433;BME280;62865;53.146;23.172;2023-05-23T04:51:54;1023.6;;;17.9;55
74433;BME280;62865;53.146;23.172;2023-05-23T04:56:30;1023.6;;;18.2;53.9
74433;BME280;62865;53.146;23.172;2023-05-23T05:02:18;1023.6;;;18.4;53.1
74433;BME280;62865;53.146;23.172;2023-05-23T05:07:02;1023.6;;;18.7;52.9
74433;BME280;62865;53.146;23.172;2023-05-23T05:12:20;1023.6;;;18.9;52.5
74433;BME280;62865;53.146;23.172;2023-05-23T05:16:42;1023.6;;;19.2;51.8
74433;BME280;62865;53.146;23.172;2023-05-23T05:21:54;1023.5;;;19.3;51.5
74433;BME280;62865;53.146;23.172;2023-05-23T05:27:04;1023.5;;;19.4;51.3
74433;BME280;62865;53.146;23.172;2023-05-23T05:31:42;1023.5;;;19.8;50.1
74433;BME280;62865;53.146;23.172;2023-05-23T05:37:20;1023.5;;;19.9;49.5
74433;BME280;62865;53.146;23.172;2023-05-23T05:42:10;1023.5;;;20;49.1
74433;BME280;62865;53.146;23.172;2023-05-23T05:46:30;1023.5;;;20.2;48.6
74433;BME280;62865;53.146;23.172;2023-05-23T05:52:05;1023.5;;;20.6;48.2
74433;BME280;62865;53.146;23.172;2023-05-23T05:56:30;1023.4;;;20.9;47
74433;BME280;62865;53.146;23.172;2023-05-23T06:01:42;1023.4;;;21.4;46.3
74433;BME280;62865;53.146;23.172;2023-05-23T06:07:10;1023.4;;;21.8;45.6
74433;BME280;62865;53.146;23.172;2023-05-23T06:12:10;1023.3;;;21.9;45.6
74433;BME280;62865;53.146;23.172;2023-05-23T06:16:44;1023.3;;;22.2;44.5
74433;BME280;62865;53.146;23.172;2023-05-23T06:21:30;1023.3;;;22.3;43.7
74433;BME280;62865;53.146;23.172;2023-05-23T06:27:18;1023.3;;;22.3;43.4
74433;BME280;62865;53.146;23.172;2023-05-23T06:31:38;1023.3;;;22.5;43
74433;BME280;62865;53.146;23.172;2023-05-23T06:36:44;1023.3;;;22.6;43.2
74433;BME280;62865;53.146;23.172;2023-05-23T06:41:30;1023.2;;;22.6;43.4
74433;BME280;62865;53.146;23.172;2023-05-23T06:47:20;1023.2;;;22.6;43.4
74433;BME280;62865;53.146;23.172;2023-05-23T06:52:18;1023.1;;;22.4;43.5
74433;BME280;62865;53.146;23.172;2023-05-23T06:57:18;1023.1;;;22.2;43.6
74433;BME280;62865;53.146;23.172;2023-05-23T07:02:16;1023.1;;;21.9;43.7
74433;BME280;62865;53.146;23.172;2023-05-23T07:06:36;1023.1;;;21.8;43.5
74433;BME280;62865;53.146;23.172;2023-05-23T07:11:30;1023.1;;;21.6;44
74433;BME280;62865;53.146;23.172;2023-05-23T07:16:30;1023;;;21.7;43.4
74433;BME280;62865;53.146;23.172;2023-05-23T07:22:04;1023;;;21.7;43.1
74433;BME280;62865;53.146;23.172;2023-05-23T07:26:30;1023;;;21.9;42.7
74433;BME280;62865;53.146;23.172;2023-05-23T07:32:08;1023;;;22.1;41.9
74433;BME280;62865;53.146;23.172;2023-05-23T07:37:02;1022.9;;;22.4;41.5
74433;BME280;62865;53.146;23.172;2023-05-23T07:42:00;1022.9;;;22.5;41.6
74433;BME280;62865;53.146;23.172;2023-05-23T07:46:56;1022.8;;;22.6;41.3
74433;BME280;62865;53.146;23.172;2023-05-23T07:51:54;1022.8;;;22.7;41.2
74433;BME280;62865;53.146;23.172;2023-05-23T07:56:58;1022.8;;;22.8;41
74433;BME280;62865;53.146;23.172;2023-05-23T08:01:42;1022.8;;;22.8;40.6
74433;BME280;62865;53.146;23.172;2023-05-23T08:07:20;1022.7;;;22.9;39.8
74433;BME280;62865;53.146;23.172;2023-05-23T08:12:18;1022.7;;;23.1;38
74433;BME280;62865;53.146;23.172;2023-05-23T08:16:30;1022.6;;;23.2;35.8
74433;BME280;62865;53.146;23.172;2023-05-23T08:22:04;1022.6;;;23.3;35.2
74433;BME280;62865;53.146;23.172;2023-05-23T08:26:30;1022.6;;;23.4;35.3
74433;BME280;62865;53.146;23.172;2023-05-23T08:31:48;1022.5;;;23.5;35
74433;BME280;62865;53.146;23.172;2023-05-23T08:37:20;1022.5;;;23.6;35.7
74433;BME280;62865;53.146;23.172;2023-05-23T08:42:12;1022.5;;;23.8;35.3
74433;BME280;62865;53.146;23.172;2023-05-23T08:47:20;1022.5;;;23.9;35
74433;BME280;62865;53.146;23.172;2023-05-23T08:51:42;1022.5;;;24.1;34.2
74433;BME280;62865;53.146;23.172;2023-05-23T08:57:20;1022.4;;;24.2;33.5
74433;BME280;62865;53.146;23.172;2023-05-23T09:01:48;1022.4;;;24.3;33.1
74433;BME280;62865;53.146;23.172;2023-05-23T09:06:30;1022.3;;;24.6;33
74433;BME280;62865;53.146;23.172;2023-05-23T09:11:56;1022.3;;;24.7;32.3
74433;BME280;62865;53.146;23.172;2023-05-23T09:16:32;1022.2;;;24.8;32.6
74433;BME280;62865;53.146;23.172;2023-05-23T09:22:22;1022.2;;;24.9;31.4
74433;BME280;62865;53.146;23.172;2023-05-23T09:27:20;1022.2;;;24.8;30.8
74433;BME280;62865;53.146;23.172;2023-05-23T09:32:20;1022.1;;;24.9;31
74433;BME280;62865;53.146;23.172;2023-05-23T09:36:48;1022.1;;;25.2;30.4
74433;BME280;62865;53.146;23.172;2023-05-23T09:41:31;1022.1;;;25.5;30.3
74433;BME280;62865;53.146;23.172;2023-05-23T09:46:56;1022.1;;;25.9;29.5
74433;BME280;62865;53.146;23.172;2023-05-23T09:52:20;1022;;;26.5;29.1
74433;BME280;62865;53.146;23.172;2023-05-23T09:56:42;1022;;;26.7;28.5
74433;BME280;62865;53.146;23.172;2023-05-23T10:02:12;1021.9;;;27;27.9
74433;BME280;62865;53.146;23.172;2023-05-23T10:07:02;1021.9;;;27.1;27
74433;BME280;62865;53.146;23.172;2023-05-23T10:12:27;1021.9;;;27.2;27.3
74433;BME280;62865;53.146;23.172;2023-05-23T10:16:57;1021.8;;;27.2;27.5
74433;BME280;62865;53.146;23.172;2023-05-23T10:21:32;1021.8;;;27.1;26.6
74433;BME280;62865;53.146;23.172;2023-05-23T10:26:58;1021.8;;;26.9;26.9
74433;BME280;62865;53.146;23.172;2023-05-23T10:31:30;1021.8;;;27;25.9
74433;BME280;62865;53.146;23.172;2023-05-23T10:37:23;1021.7;;;27.2;26.1
74433;BME280;62865;53.146;23.172;2023-05-23T10:42:07;1021.7;;;27.3;27.3
74433;BME280;62865;53.146;23.172;2023-05-23T10:46:51;1021.7;;;27.4;27.3
74433;BME280;62865;53.146;23.172;2023-05-23T10:52:07;1021.7;;;27.5;27.4
74433;BME280;62865;53.146;23.172;2023-05-23T10:57:01;1021.6;;;27.3;27.4
74433;BME280;62865;53.146;23.172;2023-05-23T11:01:42;1021.6;;;27.3;27.5
74433;BME280;62865;53.146;23.172;2023-05-23T11:07:27;1021.6;;;27.4;27.5
74433;BME280;62865;53.146;23.172;2023-05-23T11:12:12;1021.5;;;27.4;26.6
74433;BME280;62865;53.146;23.172;2023-05-23T11:17:35;1021.6;;;26.9;27.1
74433;BME280;62865;53.146;23.172;2023-05-23T11:21:30;1021.6;;;27;27.5
74433;BME280;62865;53.146;23.172;2023-05-23T11:27:24;1021.5;;;27.3;27
74433;BME280;62865;53.146;23.172;2023-05-23T11:31:52;1021.4;;;27.2;27.2
74433;BME280;62865;53.146;23.172;2023-05-23T11:36:30;1021.4;;;27.2;27.7
74433;BME280;62865;53.146;23.172;2023-05-23T11:42:20;1021.4;;;27.3;27.3
74433;BME280;62865;53.146;23.172;2023-05-23T11:47:12;1021.4;;;27.2;27
74433;BME280;62865;53.146;23.172;2023-05-23T11:51:44;1021.4;;;26.9;27
74433;BME280;62865;53.146;23.172;2023-05-23T11:57:06;1021.4;;;26.5;27.3
74433;BME280;62865;53.146;23.172;2023-05-23T12:01:42;1021.4;;;26.1;27.8
74433;BME280;62865;53.146;23.172;2023-05-23T12:06:45;1021.4;;;26;27.7
74433;BME280;62865;53.146;23.172;2023-05-23T12:11:43;1021.4;;;26;27.8
74433;BME280;62865;53.146;23.172;2023-05-23T12:17:12;1021.4;;;26.1;27.9
74433;BME280;62865;53.146;23.172;2023-05-23T12:22:04;1021.3;;;26.2;27.3
74433;BME280;62865;53.146;23.172;2023-05-23T12:26:46;1021.3;;;26.6;26.4
74433;BME280;62865;53.146;23.172;2023-05-23T12:32:20;1021.3;;;27.2;26.1
74433;BME280;62865;53.146;23.172;2023-05-23T12:37:02;1021.2;;;27.8;26.1
74433;BME280;62865;53.146;23.172;2023-05-23T12:41:31;1021.2;;;28.4;25.1
74433;BME280;62865;53.146;23.172;2023-05-23T12:46:54;1021.1;;;29;24.7
74433;BME280;62865;53.146;23.172;2023-05-23T12:52:20;1021.1;;;29.1;24.3
74433;BME280;62865;53.146;23.172;2023-05-23T12:57:20;1021.1;;;28.7;24.6
74433;BME280;62865;53.146;23.172;2023-05-23T13:02:12;1021;;;28.6;24.6
74433;BME280;62865;53.146;23.172;2023-05-23T13:07:04;1021;;;28.7;24.6
74433;BME280;62865;53.146;23.172;2023-05-23T13:11:30;1021;;;29.3;24.1
74433;BME280;62865;53.146;23.172;2023-05-23T13:16:30;1020.9;;;29.1;24.3
74433;BME280;62865;53.146;23.172;2023-05-23T13:21:56;1020.9;;;28.6;25.3
74433;BME280;62865;53.146;23.172;2023-05-23T13:26:56;1020.9;;;28;25.7
74433;BME280;62865;53.146;23.172;2023-05-23T13:31:56;1020.9;;;27.7;26.2
74433;BME280;62865;53.146;23.172;2023-05-23T13:37:20;1020.9;;;27.8;26.4
74433;BME280;62865;53.146;23.172;2023-05-23T13:42:04;1020.8;;;27.9;26.7
74433;BME280;62865;53.146;23.172;2023-05-23T13:47:20;1020.8;;;28.1;26.5
74433;BME280;62865;53.146;23.172;2023-05-23T13:51:30;1020.7;;;28.5;26
74433;BME280;62865;53.146;23.172;2023-05-23T13:56:56;1020.6;;;29.3;25.4
74433;BME280;62865;53.146;23.172;2023-05-23T14:02:04;1020.5;;;29.8;24.7
74433;BME280;62865;53.146;23.172;2023-05-23T14:06:42;1020.5;;;30.1;23.9
74433;BME280;62865;53.146;23.172;2023-05-23T14:12:20;1020.5;;;30.1;23.3
74433;BME280;62865;53.146;23.172;2023-05-23T14:17:13;1020.5;;;29.8;23.3
74433;BME280;62865;53.146;23.172;2023-05-23T14:21:30;1020.5;;;29.7;23.6
74433;BME280;62865;53.146;23.172;2023-05-23T14:27:04;1020.5;;;29.5;23.9
74433;BME280;62865;53.146;23.172;2023-05-23T14:32:04;1020.5;;;29.3;23.6
74433;BME280;62865;53.146;23.172;2023-05-23T14:36:32;1020.4;;;29.3;23.8
74433;BME280;62865;53.146;23.172;2023-05-23T14:41:44;1020.4;;;29.1;24.3
74433;BME280;62865;53.146;23.172;2023-05-23T14:47:20;1020.4;;;29.1;24.4
74433;BME280;62865;53.146;23.172;2023-05-23T14:52:06;1020.4;;;29.3;24
74433;BME280;62865;53.146;23.172;2023-05-23T14:56:32;1020.4;;;29.3;24
74433;BME280;62865;53.146;23.172;2023-05-23T15:02:22;1020.4;;;29.3;24
74433;BME280;62865;53.146;23.172;2023-05-23T15:07:04;1020.4;;;29.1;24.5
74433;BME280;62865;53.146;23.172;2023-05-23T15:11:32;1020.4;;;28.6;25.3
74433;BME280;62865;53.146;23.172;2023-05-23T15:16:58;1020.4;;;27.8;25.6
74433;BME280;62865;53.146;23.172;2023-05-23T15:22:22;1020.5;;;27.2;26.6
74433;BME280;62865;53.146;23.172;2023-05-23T15:27:24;1020.5;;;26.7;27.1
74433;BME280;62865;53.146;23.172;2023-05-23T15:31:32;1020.4;;;26.2;27.4
74433;BME280;62865;53.146;23.172;2023-05-23T15:36:58;1020.4;;;25.9;28
74433;BME280;62865;53.146;23.172;2023-05-23T15:42:04;1020.4;;;25.8;28.4
74433;BME280;62865;53.146;23.172;2023-05-23T15:46:44;1020.5;;;26;28.2
74433;BME280;62865;53.146;23.172;2023-05-23T15:51:46;1020.5;;;26.1;28.2
74433;BME280;62865;53.146;23.172;2023-05-23T15:57:22;1020.5;;;26.4;28.3
74433;BME280;62865;53.146;23.172;2023-05-23T16:02:14;1020.4;;;26.7;28.3
74433;BME280;62865;53.146;23.172;2023-05-23T16:07:14;1020.4;;;27;27.9
74433;BME280;62865;53.146;23.172;2023-05-23T16:11:34;1020.3;;;27.4;27.5
74433;BME280;62865;53.146;23.172;2023-05-23T16:17:06;1020.2;;;27.4;27.3
74433;BME280;62865;53.146;23.172;2023-05-23T16:21:58;1020.3;;;27.1;28
74433;BME280;62865;53.146;23.172;2023-05-23T16:26:58;1020.3;;;26.8;28.3
74433;BME280;62865;53.146;23.172;2023-05-23T16:32:08;1020.3;;;26.5;28.8
74433;BME280;62865;53.146;23.172;2023-05-23T16:36:32;1020.3;;;26.2;29.1
74433;BME280;62865;53.146;23.172;2023-05-23T16:42:24;1020.3;;;25.9;29.3
74433;BME280;62865;53.146;23.172;2023-05-23T16:47:24;1020.3;;;25.6;29.6
74433;BME280;62865;53.146;23.172;2023-05-23T16:51:32;1020.3;;;25.3;30.4
74433;BME280;62865;53.146;23.172;2023-05-23T16:57:06;1020.3;;;25.1;31.1
74433;BME280;62865;53.146;23.172;2023-05-23T17:01:54;1020.3;;;25;31.5
74433;BME280;62865;53.146;23.172;2023-05-23T17:06:42;1020.3;;;24.9;31.9
74433;BME280;62865;53.146;23.172;2023-05-23T17:12:18;1020.3;;;24.8;32.3
74433;BME280;62865;53.146;23.172;2023-05-23T17:17:10;1020.3;;;24.7;32.5
74433;BME280;62865;53.146;23.172;2023-05-23T17:22:18;1020.3;;;24.6;33
74433;BME280;62865;53.146;23.172;2023-05-23T17:26:58;1020.3;;;24.5;33.2
74433;BME280;62865;53.146;23.172;2023-05-23T17:32:22;1020.3;;;24.4;33.6
74433;BME280;62865;53.146;23.172;2023-05-23T17:36:38;1020.2;;;24.2;33.9
74433;BME280;62865;53.146;23.172;2023-05-23T17:41:46;1020.2;;;24;34.3
74433;BME280;62865;53.146;23.172;2023-05-23T17:46:44;1020.2;;;23.9;34.8
74433;BME280;62865;53.146;23.172;2023-05-23T17:52:14;1020.2;;;23.7;35
74433;BME280;62865;53.146;23.172;2023-05-23T17:57:22;1020.3;;;23.6;35.3
74433;BME280;62865;53.146;23.172;2023-05-23T18:02:16;1020.3;;;23.5;35.7
74433;BME280;62865;53.146;23.172;2023-05-23T18:07:22;1020.3;;;23.3;36
74433;BME280;62865;53.146;23.172;2023-05-23T18:11:44;1020.4;;;23.1;36.4
74433;BME280;62865;53.146;23.172;2023-05-23T18:16:32;1020.4;;;23;36.7
74433;BME280;62865;53.146;23.172;2023-05-23T18:21:59;1020.4;;;22.8;37.1
74433;BME280;62865;53.146;23.172;2023-05-23T18:27:24;1020.5;;;22.6;37.5
74433;BME280;62865;53.146;23.172;2023-05-23T18:31:32;1020.5;;;22.4;37.8
74433;BME280;62865;53.146;23.172;2023-05-23T18:37:12;1020.5;;;22.2;38
74433;BME280;62865;53.146;23.172;2023-05-23T18:42:02;1020.6;;;22;38.3
74433;BME280;62865;53.146;23.172;2023-05-23T18:47:20;1020.7;;;21.8;38.8
74433;BME280;62865;53.146;23.172;2023-05-23T18:51:56;1020.7;;;21.7;39.2
74433;BME280;62865;53.146;23.172;2023-05-23T18:56:44;1020.7;;;21.5;39.6
74433;BME280;62865;53.146;23.172;2023-05-23T19:01:52;1020.8;;;21.4;39.7
74433;BME280;62865;53.146;23.172;2023-05-23T19:06:32;1020.8;;;21.2;40.3
74433;BME280;62865;53.146;23.172;2023-05-23T19:12:20;1020.8;;;21.1;40.6
74433;BME280;62865;53.146;23.172;2023-05-23T19:17:18;1020.8;;;20.9;40.8
74433;BME280;62865;53.146;23.172;2023-05-23T19:21:52;1020.8;;;20.8;41.2
74433;BME280;62865;53.146;23.172;2023-05-23T19:27:04;1020.8;;;20.6;41.5
74433;BME280;62865;53.146;23.172;2023-05-23T19:31:58;1020.9;;;20.5;41.7
74433;BME280;62865;53.146;23.172;2023-05-23T19:36:50;1021;;;20.4;42
74433;BME280;62865;53.146;23.172;2023-05-23T19:42:06;1021.1;;;20.2;42.1
74433;BME280;62865;53.146;23.172;2023-05-23T19:47:12;1021.1;;;20.1;42.5
74433;BME280;62865;53.146;23.172;2023-05-23T19:52:20;1021.1;;;20;42.8
74433;BME280;62865;53.146;23.172;2023-05-23T19:56:44;1021.1;;;19.9;43
74433;BME280;62865;53.146;23.172;2023-05-23T20:02:23;1021.1;;;19.8;43.3
74433;BME280;62865;53.146;23.172;2023-05-23T20:06:38;1021.2;;;19.7;43.6
74433;BME280;62865;53.146;23.172;2023-05-23T20:11:44;1021.2;;;19.6;44.2
74433;BME280;62865;53.146;23.172;2023-05-23T20:16:32;1021.2;;;19.5;44.4
74433;BME280;62865;53.146;23.172;2023-05-23T20:22:00;1021.3;;;19.4;44.6
74433;BME280;62865;53.146;23.172;2023-05-23T20:27:22;1021.4;;;19.2;44.8
74433;BME280;62865;53.146;23.172;2023-05-23T20:32:20;1021.4;;;19.1;45.1
74433;BME280;62865;53.146;23.172;2023-05-23T20:37:20;1021.4;;;19;45.4
74433;BME280;62865;53.146;23.172;2023-05-23T20:41:30;1021.5;;;19;45.7
74433;BME280;62865;53.146;23.172;2023-05-23T20:46:56;1021.5;;;18.9;46
74433;BME280;62865;53.146;23.172;2023-05-23T20:51:56;1021.6;;;18.8;46.2
74433;BME280;62865;53.146;23.172;2023-05-23T20:56:50;1021.5;;;18.7;46.5
74433;BME280;62865;53.146;23.172;2023-05-23T21:01:32;1021.6;;;18.6;46.8
74433;BME280;62865;53.146;23.172;2023-05-23T21:07:06;1021.6;;;18.6;46.8
74433;BME280;62865;53.146;23.172;2023-05-23T21:12:06;1021.6;;;18.6;46.8
74433;BME280;62865;53.146;23.172;2023-05-23T21:16:32;1021.6;;;18.5;46.9
74433;BME280;62865;53.146;23.172;2023-05-23T21:21:32;1021.6;;;18.5;47.2
74433;BME280;62865;53.146;23.172;2023-05-23T21:27:20;1021.6;;;18.4;47.2
74433;BME280;62865;53.146;23.172;2023-05-23T21:32:22;1021.6;;;18.4;47.3
74433;BME280;62865;53.146;23.172;2023-05-23T21:36:44;1021.6;;;18.3;47.4
74433;BME280;62865;53.146;23.172;2023-05-23T21:42:06;1021.7;;;18.3;47.3
74433;BME280;62865;53.146;23.172;2023-05-23T21:46:52;1021.7;;;18.3;47.3
74433;BME280;62865;53.146;23.172;2023-05-23T21:51:32;1021.7;;;18.4;47.3
74433;BME280;62865;53.146;23.172;2023-05-23T21:57:14;1021.7;;;18.4;47.3
74433;BME280;62865;53.146;23.172;2023-05-23T22:01:44;1021.7;;;18.5;47.2
74433;BME280;62865;53.146;23.172;2023-05-23T22:06:44;1021.7;;;18.5;47.2
74433;BME280;62865;53.146;23.172;2023-05-23T22:12:22;1021.7;;;18.6;47
74433;BME280;62865;53.146;23.172;2023-05-23T22:17:06;1021.7;;;18.6;47
74433;BME280;62865;53.146;23.172;2023-05-23T22:22:08;1021.7;;;18.6;47
74433;BME280;62865;53.146;23.172;2023-05-23T22:26:38;1021.7;;;18.6;47.1
74433;BME280;62865;53.146;23.172;2023-05-23T22:32:14;1021.7;;;18.6;47.2
74433;BME280;62865;53.146;23.172;2023-05-23T22:37:06;1021.7;;;18.6;47.2
74433;BME280;62865;53.146;23.172;2023-05-23T22:41:58;1021.7;;;18.6;47.4
74433;BME280;62865;53.146;23.172;2023-05-23T22:47:22;1021.7;;;18.5;47.5
74433;BME280;62865;53.146;23.172;2023-05-23T22:52:12;1021.6;;;18.5;47.6
74433;BME280;62865;53.146;23.172;2023-05-23T22:56:32;1021.6;;;18.4;47.8
74433;BME280;62865;53.146;23.172;2023-05-23T23:02:04;1021.7;;;18.4;48
74433;BME280;62865;53.146;23.172;2023-05-23T23:06:42;1021.7;;;18.4;48.1
74433;BME280;62865;53.146;23.172;2023-05-23T23:11:48;1021.6;;;18.3;48.3
74433;BME280;62865;53.146;23.172;2023-05-23T23:16:32;1021.7;;;18.2;48.5
74433;BME280;62865;53.146;23.172;2023-05-23T23:22:12;1021.7;;;18.1;48.8
74433;BME280;62865;53.146;23.172;2023-05-23T23:27:18;1021.7;;;18;49
74433;BME280;62865;53.146;23.172;2023-05-23T23:31:32;1021.6;;;17.9;49.3
74433;BME280;62865;53.146;23.172;2023-05-23T23:37:18;1021.6;;;17.8;49.7
74433;BME280;62865;53.146;23.172;2023-05-23T23:42:03;1021.6;;;17.6;50.1
74433;BME280;62865;53.146;23.172;2023-05-23T23:46:32;1021.7;;;17.5;50.4
74433;BME280;62865;53.146;23.172;2023-05-23T23:51:52;1021.6;;;17.4;50.7
74433;BME280;62865;53.146;23.172;2023-05-23T23:57:16;1021.6;;;17.3;51.1
